Time;durP1;ratioP1;P1;durP2;ratioP2;P2;SDS_P1;SDS_P2;PMS_P1;PMS_P2;Temp;Humidity;BMP_temperature;BMP_pressure;BME280_temperature;BME280_humidity;BME280_pressure;Samples;Min_cycle;Max_cycle;Signal;HPM_P1;HPM_P2
2022/06/26 00:02:19;;;;;;;14.20;12.82;;;21.70;97.40;;;;;;4938123;28;92434;-71
2022/06/26 00:04:46;;;;;;;14.80;13.32;;;21.70;97.40;;;;;;4937543;28;91810;-70
2022/06/26 00:07:13;;;;;;;15.07;13.98;;;21.70;97.40;;;;;;4936207;28;93132;-71
2022/06/26 00:09:40;;;;;;;16.10;14.68;;;21.70;97.30;;;;;;4936956;28;94756;-70
2022/06/26 00:12:08;;;;;;;15.55;14.13;;;21.70;97.30;;;;;;4937195;28;94939;-71
2022/06/26 00:14:35;;;;;;;16.63;15.02;;;21.60;97.40;;;;;;4937924;28;92455;-70
2022/06/26 00:17:02;;;;;;;17.48;15.98;;;21.60;97.30;;;;;;4938194;28;93318;-71
2022/06/26 00:19:30;;;;;;;16.73;15.23;;;21.60;97.30;;;;;;4936391;28;95849;-70
2022/06/26 00:21:57;;;;;;;18.58;17.08;;;21.60;97.40;;;;;;4938244;28;92449;-70
2022/06/26 00:24:24;;;;;;;18.75;17.00;;;21.50;97.50;;;;;;4937908;28;92545;-71
2022/06/26 00:26:51;;;;;;;18.83;17.10;;;21.50;97.60;;;;;;4936393;28;95996;-70
2022/06/26 00:29:18;;;;;;;18.15;16.45;;;21.50;97.70;;;;;;4938118;28;92975;-70
2022/06/26 00:31:45;;;;;;;19.48;17.77;;;21.40;97.70;;;;;;4937606;28;99344;-70
2022/06/26 00:34:12;;;;;;;19.58;17.98;;;21.40;97.80;;;;;;4920834;28;92457;-70
2022/06/26 00:36:40;;;;;;;18.95;17.17;;;21.40;97.90;;;;;;4919070;28;98298;-71
2022/06/26 00:39:07;;;;;;;21.58;19.67;;;21.40;97.90;;;;;;4920319;28;98130;-70
2022/06/26 00:41:34;;;;;;;19.05;17.33;;;21.40;97.90;;;;;;4937578;28;92396;-70
2022/06/26 00:44:13;;;;;;;19.55;17.80;;;21.40;97.90;;;;;;4936293;28;92492;-70
2022/06/26 00:46:40;;;;;;;19.40;17.73;;;21.40;97.90;;;;;;4936158;28;94736;-70
2022/06/26 00:49:07;;;;;;;18.92;17.33;;;21.30;98.00;;;;;;4936045;28;95501;-70
2022/06/26 00:51:37;;;;;;;20.58;18.50;;;21.30;98.00;;;;;;4935952;28;92425;-70
2022/06/26 00:54:04;;;;;;;18.85;17.25;;;21.30;98.00;;;;;;4936455;28;91810;-71
2022/06/26 00:56:31;;;;;;;19.40;17.60;;;21.20;98.10;;;;;;4937002;28;93306;-71
2022/06/26 00:58:58;;;;;;;20.75;18.95;;;21.20;98.10;;;;;;4937532;28;92978;-71
2022/06/26 01:01:25;;;;;;;20.33;18.42;;;21.20;98.20;;;;;;4917958;28;94854;-70
2022/06/26 01:03:52;;;;;;;18.88;17.08;;;21.20;98.30;;;;;;4936002;28;92449;-71
2022/06/26 01:06:20;;;;;;;18.13;16.52;;;21.20;98.30;;;;;;4935845;28;95859;-71
2022/06/26 01:08:47;;;;;;;20.58;18.73;;;21.20;98.40;;;;;;4935323;28;95566;-70
2022/06/26 01:11:23;;;;;;;20.40;18.67;;;21.10;98.40;;;;;;4937503;28;92990;-70
2022/06/26 01:13:53;;;;;;;19.73;18.02;;;21.10;98.50;;;;;;4920064;28;92428;-70
2022/06/26 01:16:22;;;;;;;21.02;19.23;;;21.10;98.60;;;;;;4935489;28;95720;-70
2022/06/26 01:18:52;;;;;;;21.10;19.13;;;21.10;98.60;;;;;;4936204;28;95436;-70
2022/06/26 01:21:19;;;;;;;20.98;19.10;;;21.10;98.70;;;;;;4935886;28;92442;-70
2022/06/26 01:23:47;;;;;;;22.35;20.13;;;21.10;98.70;;;;;;4935897;28;92522;-70
2022/06/26 01:26:16;;;;;;;21.00;19.10;;;21.10;98.80;;;;;;4934390;28;98144;-70
2022/06/26 01:28:43;;;;;;;21.98;19.75;;;21.00;98.80;;;;;;4935261;28;97991;-70
2022/06/26 01:31:10;;;;;;;22.42;20.25;;;21.00;98.80;;;;;;4935673;28;92610;-70
2022/06/26 01:33:38;;;;;;;21.63;19.50;;;21.00;98.90;;;;;;4935308;28;92588;-70
2022/06/26 01:36:06;;;;;;;22.15;20.15;;;21.00;99.00;;;;;;4935473;28;96044;-71
2022/06/26 01:38:35;;;;;;;21.40;19.40;;;20.90;99.10;;;;;;4935141;28;95333;-70
2022/06/26 01:41:02;;;;;;;23.27;21.15;;;20.90;99.10;;;;;;4935527;28;92498;-71
2022/06/26 01:43:32;;;;;;;21.50;19.50;;;20.90;99.20;;;;;;4935699;28;91815;-70
2022/06/26 01:46:00;;;;;;;21.15;19.35;;;21.00;99.20;;;;;;4935395;28;95849;-70
2022/06/26 01:48:32;;;;;;;22.70;20.08;;;20.90;99.30;;;;;;4935185;28;95362;-70
2022/06/26 01:51:01;;;;;;;22.23;20.30;;;20.90;99.30;;;;;;4934317;28;96154;-71
2022/06/26 01:53:29;;;;;;;20.90;18.92;;;21.00;99.40;;;;;;4919165;28;92498;-70
2022/06/26 01:55:56;;;;;;;21.80;19.80;;;21.00;99.40;;;;;;4919175;28;95406;-70
2022/06/26 01:58:33;;;;;;;23.92;21.83;;;20.90;99.30;;;;;;4919657;28;95689;-70
2022/06/26 02:01:01;;;;;;;20.92;19.10;;;21.00;99.30;;;;;;4935348;28;92416;-70
2022/06/26 02:03:28;;;;;;;23.25;21.02;;;20.90;99.10;;;;;;4934999;28;93012;-71
2022/06/26 02:05:55;;;;;;;23.20;21.20;;;20.90;99.10;;;;;;4935018;28;94702;-70
2022/06/26 02:08:22;;;;;;;20.92;19.10;;;20.90;99.10;;;;;;4935096;28;93089;-70
2022/06/26 02:13:36;;;;;;;18.48;16.73;;;20.90;99.10;;;;;;4934786;28;92721;-70
2022/06/26 02:16:15;;;;;;;19.33;17.45;;;20.90;99.20;;;;;;4917640;28;97975;-70
2022/06/26 02:18:47;;;;;;;19.10;17.40;;;20.90;99.20;;;;;;4934688;28;97665;-70
2022/06/26 02:21:16;;;;;;;19.00;17.42;;;21.00;99.20;;;;;;4936678;28;92648;-70
2022/06/26 02:23:45;;;;;;;16.65;15.15;;;21.00;99.20;;;;;;4918467;28;92634;-70
2022/06/26 02:26:12;;;;;;;16.73;14.98;;;21.00;99.20;;;;;;4934894;28;95505;-70
2022/06/26 02:28:40;;;;;;;18.25;16.55;;;21.00;99.20;;;;;;4934496;28;95791;-70
2022/06/26 02:31:07;;;;;;;18.83;17.33;;;21.00;99.10;;;;;;4934718;28;92557;-70
2022/06/26 02:33:35;;;;;;;18.20;16.48;;;21.00;99.10;;;;;;4919008;28;91725;-71
2022/06/26 02:36:04;;;;;;;17.45;15.55;;;21.10;99.10;;;;;;4934597;28;94829;-70
2022/06/26 02:38:32;;;;;;;17.45;15.85;;;21.10;99.10;;;;;;4934402;28;95941;-70
2022/06/26 02:41:02;;;;;;;16.27;14.77;;;21.10;99.10;;;;;;4917779;28;94945;-70
2022/06/26 02:43:29;;;;;;;17.65;15.95;;;21.10;99.20;;;;;;4934846;28;92507;-70
2022/06/26 02:45:57;;;;;;;17.63;16.13;;;21.10;99.30;;;;;;4934640;28;95157;-70
2022/06/26 02:48:24;;;;;;;17.02;15.45;;;21.10;99.30;;;;;;4934764;28;93095;-70
2022/06/26 02:50:52;;;;;;;15.73;14.32;;;21.10;99.40;;;;;;4934365;28;92521;-70
2022/06/26 02:53:19;;;;;;;20.27;17.83;;;21.10;99.40;;;;;;4934494;28;92610;-70
2022/06/26 02:55:47;;;;;;;16.80;15.27;;;21.20;99.40;;;;;;4934118;28;95620;-70
2022/06/26 02:58:15;;;;;;;19.90;18.13;;;21.20;99.60;;;;;;4934930;28;95794;-70
2022/06/26 03:00:51;;;;;;;18.40;16.67;;;21.20;99.60;;;;;;4934313;28;92602;-70
2022/06/26 03:03:19;;;;;;;17.38;15.77;;;21.10;99.60;;;;;;4934520;28;92451;-70
2022/06/26 03:05:46;;;;;;;18.55;16.85;;;21.20;99.70;;;;;;4932769;28;98101;-70
2022/06/26 03:08:13;;;;;;;19.10;17.52;;;21.20;99.90;;;;;;4933768;28;97955;-70
2022/06/26 03:10:40;;;;;;;19.13;17.33;;;21.20;99.90;;;;;;4934028;28;92935;-70
2022/06/26 03:13:07;;;;;;;17.30;15.60;;;21.20;99.90;;;;;;4918276;28;92554;-70
2022/06/26 03:15:34;;;;;;;15.05;13.75;;;21.20;99.90;;;;;;4934041;28;95762;-70
2022/06/26 03:18:02;;;;;;;17.77;16.15;;;21.10;99.80;;;;;;4934325;28;95603;-70
2022/06/26 03:20:30;;;;;;;16.17;14.73;;;21.10;99.80;;;;;;4934162;28;92477;-70
2022/06/26 03:22:57;;;;;;;15.32;13.73;;;21.10;99.80;;;;;;4918255;28;91812;-70
2022/06/26 03:25:24;;;;;;;14.77;13.40;;;21.10;99.90;;;;;;4935262;28;95599;-70
2022/06/26 03:27:51;;;;;;;15.50;14.20;;;21.10;99.70;;;;;;4921228;28;94346;-70
2022/06/26 03:30:19;;;;;;;14.13;12.73;;;21.10;99.80;;;;;;4936131;28;94811;-70
2022/06/26 03:32:50;;;;;;;15.52;14.10;;;21.00;99.90;;;;;;4922010;28;93105;-70
2022/06/26 03:35:18;;;;;;;15.00;13.50;;;21.00;99.90;;;;;;4921159;28;95836;-70
2022/06/26 03:37:46;;;;;;;13.52;12.23;;;21.10;99.90;;;;;;4936971;28;95387;-70
2022/06/26 03:40:13;;;;;;;12.77;11.57;;;21.10;99.90;;;;;;4937526;28;92978;-70
2022/06/26 03:42:40;;;;;;;12.90;11.57;;;21.10;99.90;;;;;;4937196;28;92577;-70
2022/06/26 03:45:08;;;;;;;11.75;10.55;;;21.10;99.80;;;;;;4937131;28;95917;-70
2022/06/26 03:47:35;;;;;;;10.40;9.40;;;21.10;99.70;;;;;;4937386;28;94550;-70
2022/06/26 03:50:03;;;;;;;9.82;9.05;;;21.10;99.60;;;;;;4905716;28;92539;-70
2022/06/26 03:52:32;;;;;;;9.23;8.45;;;21.10;99.50;;;;;;4937775;28;92531;-70
2022/06/26 03:55:01;;;;;;;7.55;6.85;;;21.10;99.30;;;;;;4936122;28;98002;-70
2022/06/26 03:57:29;;;;;;;7.20;6.55;;;21.10;99.10;;;;;;4921487;28;97584;-70
2022/06/26 03:59:56;;;;;;;7.85;7.13;;;21.10;99.00;;;;;;4937603;28;92952;-70
2022/06/26 04:02:41;;;;;;;7.95;7.25;;;21.10;99.00;;;;;;4937617;28;92387;-70
2022/06/26 04:05:12;;;;;;;7.40;6.72;;;21.00;99.00;;;;;;4937579;28;95172;-70
2022/06/26 04:07:39;;;;;;;7.78;6.97;;;21.10;99.00;;;;;;4936976;28;95084;-70
2022/06/26 04:10:15;;;;;;;7.50;6.90;;;21.10;99.00;;;;;;4937595;28;92497;-70
2022/06/26 04:12:42;;;;;;;8.15;5.97;;;21.10;98.90;;;;;;4937932;28;91786;-70
2022/06/26 04:15:09;;;;;;;6.80;6.40;;;21.10;98.90;;;;;;4937374;28;95672;-70
2022/06/26 04:17:39;;;;;;;7.60;4.72;;;21.20;98.80;;;;;;4937284;28;95045;-70
2022/06/26 04:20:12;;;;;;;5.32;4.75;;;21.20;98.70;;;;;;4936073;28;94925;-70
2022/06/26 04:22:39;;;;;;;5.00;4.60;;;21.30;98.60;;;;;;4921283;28;92547;-70
2022/06/26 04:25:10;;;;;;;5.53;4.45;;;21.30;98.50;;;;;;4937289;28;95081;-70
2022/06/26 04:27:38;;;;;;;5.22;4.82;;;21.40;98.40;;;;;;4937160;28;95299;-70
2022/06/26 04:30:06;;;;;;;5.13;4.72;;;21.30;98.20;;;;;;4936846;28;92504;-70
2022/06/26 04:32:33;;;;;;;4.68;4.28;;;21.40;98.20;;;;;;4937252;28;92418;-70
2022/06/26 04:35:06;;;;;;;5.80;5.25;;;21.30;98.30;;;;;;4936988;28;95070;-70
2022/06/26 04:37:34;;;;;;;4.90;4.50;;;21.30;98.20;;;;;;4920301;28;95882;-70
2022/06/26 04:40:03;;;;;;;4.60;4.20;;;21.40;98.20;;;;;;4937097;28;93034;-70
2022/06/26 04:42:30;;;;;;;4.50;4.10;;;21.30;98.20;;;;;;4936918;28;92551;-70
2022/06/26 04:44:57;;;;;;;4.88;3.90;;;21.30;98.20;;;;;;4935228;28;98325;-70
2022/06/26 04:47:24;;;;;;;4.57;4.15;;;21.40;98.20;;;;;;4936612;28;97706;-70
2022/06/26 04:50:06;;;;;;;4.63;4.15;;;21.40;98.00;;;;;;4936665;28;92514;-70
2022/06/26 04:52:33;;;;;;;5.15;4.65;;;21.30;97.90;;;;;;4936912;28;92532;-70
2022/06/26 04:55:01;;;;;;;4.05;3.60;;;21.40;97.90;;;;;;4920519;28;95600;-70
2022/06/26 04:57:30;;;;;;;4.53;4.15;;;21.40;97.90;;;;;;4936742;28;95407;-70
2022/06/26 04:59:58;;;;;;;5.35;4.90;;;21.40;97.80;;;;;;4920530;28;92442;-70
2022/06/26 05:02:25;;;;;;;5.63;5.05;;;21.40;97.90;;;;;;4937070;28;91690;-70
2022/06/26 05:05:00;;;;;;;6.25;5.85;;;21.40;97.90;;;;;;4921481;28;95855;-70
2022/06/26 05:07:30;;;;;;;7.03;6.32;;;21.50;97.90;;;;;;4936515;28;93160;-70
2022/06/26 05:09:57;;;;;;;5.88;5.38;;;21.50;97.90;;;;;;4935147;28;94988;-70
2022/06/26 05:12:25;;;;;;;5.32;4.82;;;21.50;97.80;;;;;;4920510;28;92488;-70
2022/06/26 05:15:09;;;;;;;6.60;5.18;;;21.50;97.70;;;;;;4936097;28;95476;-71
2022/06/26 05:17:40;;;;;;;6.60;6.00;;;21.50;97.80;;;;;;4936344;28;95348;-70
2022/06/26 05:20:08;;;;;;;5.90;5.40;;;21.50;97.90;;;;;;4936240;28;92498;-70
2022/06/26 05:22:35;;;;;;;8.65;6.85;;;21.60;97.90;;;;;;4920347;28;92554;-70
2022/06/26 05:25:02;;;;;;;7.20;6.18;;;21.60;97.80;;;;;;4935895;28;96001;-70
2022/06/26 05:27:29;;;;;;;6.22;5.72;;;21.70;97.70;;;;;;4936430;28;95325;-70
2022/06/26 05:29:57;;;;;;;6.18;5.70;;;21.80;97.60;;;;;;4919987;28;92462;-70
2022/06/26 05:32:25;;;;;;;6.28;5.88;;;21.90;97.60;;;;;;4920329;28;92503;-70
2022/06/26 05:34:54;;;;;;;5.57;4.95;;;22.00;97.40;;;;;;4934671;28;96665;-70
2022/06/26 05:37:21;;;;;;;5.40;5.10;;;22.20;97.20;;;;;;4935915;28;98019;-70
2022/06/26 05:39:48;;;;;;;5.38;4.85;;;22.50;96.90;;;;;;4920119;28;92602;-70
2022/06/26 05:42:18;;;;;;;5.03;4.53;;;22.70;96.60;;;;;;4920288;28;92463;-70
2022/06/26 05:44:45;;;;;;;4.55;4.22;;;23.00;96.20;;;;;;4935882;28;95414;-71
2022/06/26 05:47:12;;;;;;;5.30;4.97;;;23.20;95.60;;;;;;4935624;28;95724;-70
2022/06/26 05:50:03;;;;;;;6.80;6.40;;;23.40;95.20;;;;;;4936485;28;92816;-70
2022/06/26 05:52:49;;;;;;;6.65;6.05;;;23.40;95.00;;;;;;4936430;28;92258;-70
2022/06/26 05:55:29;;;;;;;5.68;5.18;;;23.40;94.80;;;;;;4935944;28;95727;-70
2022/06/26 05:58:15;;;;;;;6.18;5.57;;;23.40;94.70;;;;;;4937051;28;92494;-70
2022/06/26 06:01:14;;;;;;;5.80;5.40;;;23.40;94.50;;;;;;4929856;28;94872;-70
2022/06/26 06:03:44;;;;;;;7.03;6.53;;;23.50;94.40;;;;;;4935889;28;92466;-70
2022/06/26 06:06:12;;;;;;;5.78;5.30;;;23.50;94.20;;;;;;4935449;28;94603;-71
2022/06/26 06:08:39;;;;;;;6.47;5.93;;;23.60;94.00;;;;;;4935692;28;93057;-71
2022/06/26 06:11:06;;;;;;;6.90;6.38;;;23.70;93.80;;;;;;4935666;28;93045;-70
2022/06/26 06:13:33;;;;;;;6.15;5.65;;;23.90;93.60;;;;;;4935694;28;92528;-71
2022/06/26 06:16:00;;;;;;;5.72;5.25;;;24.10;93.30;;;;;;4919083;28;95557;-70
2022/06/26 06:18:27;;;;;;;7.13;6.63;;;24.30;93.10;;;;;;4920088;28;95585;-70
2022/06/26 06:20:54;;;;;;;7.07;6.65;;;24.50;92.70;;;;;;4935708;28;93369;-71
2022/06/26 06:23:36;;;;;;;6.13;5.53;;;24.60;92.10;;;;;;4935493;28;92501;-70
2022/06/26 06:26:03;;;;;;;6.35;5.78;;;24.70;92.00;;;;;;4933880;28;98064;-71
2022/06/26 06:28:31;;;;;;;6.10;5.65;;;24.70;91.80;;;;;;4935318;28;98118;-71
2022/06/26 06:30:59;;;;;;;6.25;5.75;;;24.70;91.80;;;;;;4935376;28;92471;-70
2022/06/26 06:33:28;;;;;;;7.53;6.93;;;24.80;91.70;;;;;;4903804;28;92592;-70
2022/06/26 06:35:58;;;;;;;7.70;7.10;;;24.90;91.60;;;;;;4919748;28;95728;-71
2022/06/26 06:38:28;;;;;;;8.10;7.60;;;25.10;91.30;;;;;;4935142;28;94083;-71
2022/06/26 06:40:59;;;;;;;9.50;8.73;;;25.30;91.10;;;;;;4935547;28;92821;-71
2022/06/26 06:43:35;;;;;;;9.23;8.45;;;25.50;90.80;;;;;;4935701;28;91838;-71
2022/06/26 06:46:35;;;;;;;7.82;7.22;;;25.70;90.30;;;;;;4934513;28;94474;-71
2022/06/26 06:49:12;;;;;;;9.98;9.15;;;26.00;89.50;;;;;;4934895;28;95443;-71
2022/06/26 06:51:49;;;;;;;10.35;9.43;;;26.10;88.50;;;;;;4919202;28;94930;-71
2022/06/26 06:54:16;;;;;;;9.93;9.05;;;26.30;87.40;;;;;;4936264;28;92472;-71
2022/06/26 06:56:44;;;;;;;9.88;9.00;;;26.30;86.50;;;;;;4903329;28;95736;-71
2022/06/26 06:59:13;;;;;;;9.38;8.52;;;26.30;86.40;;;;;;4903035;28;94118;-71
2022/06/26 07:01:42;;;;;;;9.85;8.90;;;26.40;86.20;;;;;;4938174;28;92532;-71
2022/06/26 07:04:09;;;;;;;8.38;7.68;;;26.30;86.60;;;;;;4922208;28;92556;-71
2022/06/26 07:06:36;;;;;;;8.07;7.47;;;26.30;85.90;;;;;;4938075;28;94789;-71
2022/06/26 07:09:04;;;;;;;9.00;8.18;;;26.30;85.80;;;;;;4938232;28;95214;-71
2022/06/26 07:11:31;;;;;;;7.88;7.18;;;26.30;85.50;;;;;;4938042;28;93019;-71
2022/06/26 07:13:58;;;;;;;7.28;6.65;;;26.20;85.20;;;;;;4922296;28;92542;-71
2022/06/26 07:16:25;;;;;;;7.15;6.55;;;26.20;85.10;;;;;;4938013;28;95563;-70
2022/06/26 07:18:52;;;;;;;7.40;6.80;;;26.20;84.90;;;;;;4937791;28;103528;-71
2022/06/26 07:21:19;;;;;;;7.88;7.25;;;26.20;85.10;;;;;;4938064;28;92594;-71
2022/06/26 07:23:46;;;;;;;7.97;7.28;;;26.20;85.10;;;;;;4922210;28;92718;-70
2022/06/26 07:26:22;;;;;;;7.45;6.85;;;26.30;85.20;;;;;;4937802;28;95228;-71
2022/06/26 07:28:50;;;;;;;8.82;8.13;;;26.20;85.10;;;;;;4921909;28;94127;-71
2022/06/26 07:31:17;;;;;;;8.55;7.78;;;26.10;85.30;;;;;;4937948;28;92523;-71
2022/06/26 07:36:32;;;;;;;11.13;10.23;;;26.00;84.10;;;;;;4937649;28;95766;-71
2022/06/26 07:38:59;;;;;;;11.18;10.27;;;25.90;84.20;;;;;;4921250;28;95780;-71
2022/06/26 07:41:26;;;;;;;10.88;9.98;;;25.80;84.20;;;;;;4919942;28;94884;-71
2022/06/26 07:43:59;;;;;;;;;;;25.80;84.30;;;;;;4937882;28;92544;-71
2022/06/26 07:46:26;;;;;;;12.80;11.50;;;25.60;84.10;;;;;;4938658;28;95621;-71
2022/06/26 07:48:53;;;;;;;13.32;12.10;;;25.60;84.80;;;;;;4937158;28;95496;-71
2022/06/26 07:51:20;;;;;;;12.90;11.95;;;25.60;84.80;;;;;;4936908;28;92965;-71
2022/06/26 07:53:48;;;;;;;11.35;10.35;;;25.60;85.00;;;;;;4938695;28;92421;-71
2022/06/26 07:56:15;;;;;;;12.32;11.23;;;25.50;85.20;;;;;;4938142;28;93324;-71
2022/06/26 07:58:42;;;;;;;12.98;11.93;;;25.50;85.60;;;;;;4937072;28;95747;-71
2022/06/26 08:01:09;;;;;;;12.20;11.20;;;25.50;85.90;;;;;;4938313;28;93217;-71
2022/06/26 08:03:41;;;;;;;11.53;10.53;;;25.60;85.90;;;;;;4937065;28;92603;-71
2022/06/26 08:06:09;;;;;;;11.75;10.75;;;25.70;85.90;;;;;;4937093;28;94817;-71
2022/06/26 08:08:37;;;;;;;12.52;11.52;;;26.00;86.00;;;;;;4920727;28;95262;-71
2022/06/26 08:11:04;;;;;;;11.02;10.30;;;26.50;85.60;;;;;;4936557;28;93047;-71
2022/06/26 08:13:31;;;;;;;11.15;10.25;;;27.20;84.00;;;;;;4937951;28;93525;-71
2022/06/26 08:15:58;;;;;;;11.27;10.18;;;28.20;81.30;;;;;;4938196;28;93315;-71
2022/06/26 08:18:25;;;;;;;11.25;10.45;;;28.80;79.10;;;;;;4936461;28;95549;-71
2022/06/26 08:20:52;;;;;;;10.85;10.05;;;29.00;77.00;;;;;;4938162;28;92360;-71
2022/06/26 08:23:20;;;;;;;9.18;8.45;;;28.90;76.40;;;;;;4937210;28;91778;-71
2022/06/26 08:25:47;;;;;;;10.20;9.48;;;28.90;76.80;;;;;;4938570;28;93195;-71
2022/06/26 08:28:14;;;;;;;9.90;9.20;;;29.20;76.00;;;;;;4936920;28;94587;-71
2022/06/26 08:30:41;;;;;;;8.93;8.32;;;29.70;73.80;;;;;;4936017;28;94791;-71
2022/06/26 08:33:08;;;;;;;7.30;6.72;;;30.30;72.30;;;;;;4937430;28;92709;-71
2022/06/26 08:35:35;;;;;;;7.18;6.60;;;30.90;70.40;;;;;;4938299;28;93168;-71
2022/06/26 08:38:02;;;;;;;8.57;7.88;;;31.50;68.40;;;;;;4936964;28;95664;-72
2022/06/26 08:40:31;;;;;;;7.03;6.45;;;32.10;66.70;;;;;;4937053;28;92846;-71
2022/06/26 08:43:01;;;;;;;5.30;4.90;;;32.70;64.60;;;;;;4938028;28;92683;-71
2022/06/26 08:45:29;;;;;;;5.53;5.18;;;33.30;61.50;;;;;;4938103;28;93394;-71
2022/06/26 08:47:58;;;;;;;5.70;5.30;;;33.70;60.50;;;;;;4938495;28;92936;-72
2022/06/26 08:50:27;;;;;;;6.18;5.78;;;34.20;59.60;;;;;;4936800;28;92398;-72
2022/06/26 08:52:54;;;;;;;6.50;6.10;;;34.20;57.10;;;;;;4936779;28;92511;-71
2022/06/26 08:55:23;;;;;;;8.80;8.23;;;33.90;57.40;;;;;;4935154;28;98282;-71
2022/06/26 08:57:50;;;;;;;6.60;6.00;;;33.90;57.20;;;;;;4937981;28;95449;-72
2022/06/26 09:00:17;;;;;;;4.30;4.10;;;34.10;56.40;;;;;;4938300;28;92452;-71
2022/06/26 09:02:44;;;;;;;6.18;5.78;;;34.60;55.40;;;;;;4936755;28;92535;-71
2022/06/26 09:05:12;;;;;;;5.07;4.78;;;34.90;53.70;;;;;;4936697;28;93295;-72
2022/06/26 09:07:51;;;;;;;5.47;5.07;;;35.10;51.80;;;;;;4937506;28;92956;-71
2022/06/26 09:10:18;;;;;;;5.85;5.35;;;35.50;51.20;;;;;;4938197;28;92438;-72
2022/06/26 09:12:57;;;;;;;3.83;3.60;;;35.40;50.90;;;;;;4938058;28;92060;-71
2022/06/26 09:15:25;;;;;;;4.85;4.45;;;35.60;48.70;;;;;;4921025;28;95882;-72
2022/06/26 09:18:03;;;;;;;4.80;4.40;;;35.40;49.00;;;;;;4937711;28;93169;-72
2022/06/26 09:20:32;;;;;;;4.03;3.72;;;35.30;48.30;;;;;;4935594;28;94915;-71
2022/06/26 09:23:01;;;;;;;4.18;3.97;;;34.80;48.80;;;;;;4935803;28;92561;-72
2022/06/26 09:25:45;;;;;;;4.20;3.50;;;34.20;49.10;;;;;;4937347;28;93191;-71
2022/06/26 09:28:17;;;;;;;3.67;3.38;;;33.80;50.10;;;;;;4920064;28;96061;-71
2022/06/26 09:30:50;;;;;;;2.88;2.67;;;33.20;50.60;;;;;;4937406;28;92466;-71
2022/06/26 09:33:23;;;;;;;4.22;4.03;;;32.80;51.90;;;;;;4920553;28;92491;-71
2022/06/26 09:35:50;;;;;;;3.30;3.00;;;32.40;53.00;;;;;;4937096;28;93137;-71
2022/06/26 09:38:25;;;;;;;3.92;3.10;;;32.00;53.50;;;;;;4937718;28;93011;-71
2022/06/26 09:41:00;;;;;;;4.03;3.72;;;31.70;54.00;;;;;;4937823;28;92395;-71
2022/06/26 09:43:29;;;;;;;4.57;3.97;;;31.40;54.60;;;;;;4936042;28;92497;-71
2022/06/26 09:45:59;;;;;;;4.60;4.22;;;31.20;55.80;;;;;;4935935;28;95721;-71
2022/06/26 09:48:27;;;;;;;4.03;3.00;;;30.90;56.50;;;;;;4935903;28;95376;-71
2022/06/26 09:50:55;;;;;;;3.75;3.45;;;30.60;56.70;;;;;;4937473;28;92345;-71
2022/06/26 09:53:23;;;;;;;2.85;2.60;;;30.50;56.40;;;;;;4935667;28;96277;-71
2022/06/26 09:55:53;;;;;;;2.80;2.53;;;30.30;57.30;;;;;;4936565;28;93236;-71
2022/06/26 09:58:21;;;;;;;3.90;3.65;;;30.20;56.30;;;;;;4937028;28;93038;-71
2022/06/26 10:06:28;;;;;;;3.22;2.92;;;30.10;57.70;;;;;;4937183;28;93311;-71
2022/06/26 10:09:03;;;;;;;3.70;3.40;;;29.90;58.00;;;;;;4936998;28;93134;-71
2022/06/26 10:11:32;;;;;;;4.07;3.78;;;29.90;58.20;;;;;;4936089;28;94817;-71
2022/06/26 10:14:04;;;;;;;3.80;3.60;;;29.90;58.70;;;;;;4935700;28;93178;-71
2022/06/26 10:16:48;;;;;;;2.97;2.78;;;29.80;58.00;;;;;;4935168;28;95611;-71
2022/06/26 10:19:18;;;;;;;2.78;2.45;;;29.90;58.10;;;;;;4937116;28;93155;-71
2022/06/26 10:21:47;;;;;;;3.03;2.35;;;30.00;58.10;;;;;;4936769;28;92467;-71
2022/06/26 10:24:14;;;;;;;2.97;2.67;;;30.20;58.30;;;;;;4936928;28;92487;-71
2022/06/26 10:26:55;;;;;;;3.88;3.63;;;30.20;57.80;;;;;;4935261;28;93260;-71
2022/06/26 10:29:33;;;;;;;4.47;3.72;;;30.40;57.50;;;;;;4935947;28;92840;-71
2022/06/26 10:32:00;;;;;;;3.38;3.08;;;30.40;57.60;;;;;;4935390;28;92688;-71
2022/06/26 10:34:27;;;;;;;3.85;3.28;;;30.40;57.80;;;;;;4935540;28;92445;-71
2022/06/26 10:37:02;;;;;;;3.70;3.17;;;30.60;57.60;;;;;;4933920;28;95576;-71
2022/06/26 10:39:45;;;;;;;4.28;3.97;;;30.70;56.80;;;;;;4936587;28;95198;-71
2022/06/26 10:45:38;;;;;;;4.30;3.92;;;30.90;56.70;;;;;;4936941;28;93209;-71
2022/06/26 10:48:25;;;;;;;4.68;4.25;;;30.90;55.90;;;;;;4935745;28;93246;-71
2022/06/26 10:50:57;;;;;;;3.80;3.45;;;31.00;56.40;;;;;;4930990;28;94096;-71
2022/06/26 10:53:28;;;;;;;3.20;2.90;;;31.10;55.80;;;;;;4936474;28;92390;-71
2022/06/26 10:55:58;;;;;;;2.67;2.47;;;31.00;55.80;;;;;;4936798;28;91669;-71
2022/06/26 10:58:28;;;;;;;3.85;3.55;;;31.00;55.60;;;;;;4936198;28;94111;-71
2022/06/26 11:01:00;;;;;;;3.25;3.03;;;31.10;55.20;;;;;;4935964;28;92935;-71
2022/06/26 11:03:29;;;;;;;2.80;2.60;;;31.30;55.20;;;;;;4933960;28;94949;-71
2022/06/26 11:06:01;;;;;;;3.08;2.80;;;31.40;54.60;;;;;;4919033;28;92485;-72
2022/06/26 11:08:30;;;;;;;3.13;2.92;;;31.60;54.20;;;;;;4935834;28;93180;-72
2022/06/26 11:11:15;;;;;;;2.83;2.63;;;31.70;54.30;;;;;;4934716;28;92873;-72
2022/06/26 11:13:53;;;;;;;2.75;2.50;;;31.80;54.00;;;;;;4935027;28;92433;-72
2022/06/26 11:16:43;;;;;;;3.13;2.78;;;31.80;53.50;;;;;;4934737;28;92530;-72
2022/06/26 11:19:23;;;;;;;2.72;2.25;;;31.70;53.70;;;;;;4936137;28;93332;-72
2022/06/26 11:21:51;;;;;;;1.80;1.70;;;31.70;53.50;;;;;;4936255;28;92911;-72
2022/06/26 11:24:18;;;;;;;3.22;2.25;;;31.70;53.50;;;;;;4918873;28;92526;-72
2022/06/26 11:26:51;;;;;;;2.15;1.77;;;31.90;52.90;;;;;;4934549;28;92568;-72
2022/06/26 11:29:19;;;;;;;3.13;2.30;;;32.00;51.30;;;;;;4916652;28;113942;-72
2022/06/26 11:31:49;;;;;;;2.65;2.45;;;32.10;52.50;;;;;;4918363;28;97874;-72
2022/06/26 11:34:18;;;;;;;2.55;2.25;;;32.10;51.40;;;;;;4936412;28;93447;-72
2022/06/26 11:37:03;;;;;;;2.13;1.92;;;32.10;51.50;;;;;;4936024;28;93007;-72
2022/06/26 11:39:39;;;;;;;2.80;2.00;;;32.10;51.30;;;;;;4936007;28;93178;-72
2022/06/26 11:42:18;;;;;;;4.43;4.10;;;32.20;50.70;;;;;;4934519;28;92998;-72
2022/06/26 11:44:53;;;;;;;2.63;2.42;;;32.30;50.60;;;;;;4935977;28;92407;-72
2022/06/26 11:47:21;;;;;;;3.78;2.88;;;32.40;50.10;;;;;;4937775;28;91749;-72
2022/06/26 11:49:48;;;;;;;2.15;1.90;;;32.40;50.80;;;;;;4938803;28;93333;-72
2022/06/26 11:52:16;;;;;;;3.70;3.40;;;32.30;50.60;;;;;;4937550;28;93232;-72
2022/06/26 11:54:43;;;;;;;3.58;2.35;;;32.20;50.70;;;;;;4938049;28;94858;-72
2022/06/26 11:57:12;;;;;;;2.42;2.20;;;32.10;51.70;;;;;;4939226;28;92531;-72
2022/06/26 11:59:45;;;;;;;4.70;3.08;;;32.10;51.70;;;;;;4938958;28;93346;-72
2022/06/26 12:02:23;;;;;;;4.38;2.40;;;32.10;52.40;;;;;;4939140;28;92921;-72
2022/06/26 12:04:57;;;;;;;3.00;2.80;;;32.20;52.80;;;;;;4938715;28;92501;-72
2022/06/26 12:07:24;;;;;;;3.75;2.80;;;32.10;52.00;;;;;;4921173;28;93134;-72
2022/06/26 12:09:51;;;;;;;3.90;3.60;;;32.00;52.30;;;;;;4938603;28;93663;-72
2022/06/26 12:12:19;;;;;;;3.08;2.88;;;31.70;52.10;;;;;;4937935;28;91725;-72
2022/06/26 12:14:51;;;;;;;4.07;2.55;;;31.50;52.80;;;;;;4938926;28;92997;-72
2022/06/26 12:17:28;;;;;;;3.22;2.88;;;31.40;52.90;;;;;;4938819;28;92422;-72
2022/06/26 12:20:05;;;;;;;3.30;3.00;;;31.40;53.10;;;;;;4937354;28;95693;-72
2022/06/26 12:22:35;;;;;;;2.67;2.10;;;31.30;52.80;;;;;;4938753;28;95306;-72
2022/06/26 12:25:03;;;;;;;3.33;3.05;;;31.40;52.20;;;;;;4938048;28;97318;-72
2022/06/26 12:27:48;;;;;;;2.95;2.22;;;31.40;51.50;;;;;;4938482;28;92993;-72
2022/06/26 12:30:20;;;;;;;3.47;2.50;;;31.50;51.40;;;;;;4947662;28;93155;-72
2022/06/26 12:32:58;;;;;;;3.63;3.30;;;31.50;51.00;;;;;;4958000;28;93010;-72
2022/06/26 12:35:26;;;;;;;2.90;2.67;;;31.50;50.90;;;;;;4940720;28;92411;-72
2022/06/26 12:37:54;;;;;;;3.75;1.80;;;31.70;51.30;;;;;;4958381;28;92378;-72
2022/06/26 12:40:22;;;;;;;2.33;1.85;;;31.80;50.50;;;;;;4956439;28;93297;-72
2022/06/26 12:42:49;;;;;;;4.63;2.20;;;32.00;50.40;;;;;;4956652;28;92920;-72
2022/06/26 12:45:16;;;;;;;3.88;3.30;;;32.20;50.00;;;;;;4956940;28;95303;-72
2022/06/26 12:47:43;;;;;;;3.15;1.98;;;32.20;49.60;;;;;;4956621;28;92480;-72
2022/06/26 12:50:13;;;;;;;2.70;2.28;;;32.30;49.70;;;;;;4957462;28;93349;-72
2022/06/26 12:52:40;;;;;;;4.47;3.03;;;32.30;49.90;;;;;;4957302;28;92992;-72
2022/06/26 12:55:08;;;;;;;3.47;2.75;;;32.30;49.70;;;;;;4956145;28;93372;-72
2022/06/26 12:57:36;;;;;;;2.85;1.88;;;32.20;49.70;;;;;;4955553;28;92437;-72
2022/06/26 13:00:05;;;;;;;2.80;2.60;;;32.10;49.50;;;;;;4955844;28;95772;-72
2022/06/26 13:02:32;;;;;;;5.57;3.35;;;31.90;49.60;;;;;;4957649;28;92726;-72
2022/06/26 13:04:59;;;;;;;3.40;2.40;;;31.80;49.90;;;;;;4956366;28;92565;-72
2022/06/26 13:07:26;;;;;;;3.08;2.40;;;31.70;50.80;;;;;;4957337;28;93142;-72
2022/06/26 13:09:56;;;;;;;2.95;2.75;;;31.60;51.10;;;;;;4956223;28;95678;-72